sensor_id;sensor_type;location;lat;lon;timestamp;P1;durP1;ratioP1;P2;durP2;ratioP2
12800;SDS011;6464;42.494;27.470;2024-03-29T00:00:11;2.20;;;2.20;;
12800;SDS011;6464;42.494;27.470;2024-03-29T00:02:40;2.20;;;2.20;;
12800;SDS011;6464;42.494;27.470;2024-03-29T00:05:09;2.20;;;2.20;;
12800;SDS011;6464;42.494;27.470;2024-03-29T00:07:35;2.10;;;2.10;;
12800;SDS011;6464;42.494;27.470;2024-03-29T00:10:01;2.10;;;2.10;;
12800;SDS011;6464;42.494;27.470;2024-03-29T00:18:04;1.53;;;1.53;;
12800;SDS011;6464;42.494;27.470;2024-03-29T00:20:30;1.40;;;1.40;;
12800;SDS011;6464;42.494;27.470;2024-03-29T00:22:58;1.00;;;1.00;;
12800;SDS011;6464;42.494;27.470;2024-03-29T00:25:24;0.90;;;0.90;;
12800;SDS011;6464;42.494;27.470;2024-03-29T00:27:51;0.80;;;0.80;;
12800;SDS011;6464;42.494;27.470;2024-03-29T00:30:18;0.80;;;0.80;;
12800;SDS011;6464;42.494;27.470;2024-03-29T00:32:49;0.70;;;0.70;;
12800;SDS011;6464;42.494;27.470;2024-03-29T00:35:22;0.70;;;0.70;;
12800;SDS011;6464;42.494;27.470;2024-03-29T00:37:48;0.60;;;0.60;;
12800;SDS011;6464;42.494;27.470;2024-03-29T00:40:16;0.60;;;0.60;;
12800;SDS011;6464;42.494;27.470;2024-03-29T00:42:42;0.40;;;0.40;;
12800;SDS011;6464;42.494;27.470;2024-03-29T00:45:08;0.30;;;0.30;;
12800;SDS011;6464;42.494;27.470;2024-03-29T00:47:34;0.30;;;0.30;;
12800;SDS011;6464;42.494;27.470;2024-03-29T00:50:00;0.20;;;0.20;;
12800;SDS011;6464;42.494;27.470;2024-03-29T00:52:27;0.20;;;0.20;;
12800;SDS011;6464;42.494;27.470;2024-03-29T00:54:53;0.10;;;0.10;;
12800;SDS011;6464;42.494;27.470;2024-03-29T00:57:19;0.10;;;0.10;;
12800;SDS011;6464;42.494;27.470;2024-03-29T00:59:45;0.10;;;0.10;;
12800;SDS011;6464;42.494;27.470;2024-03-29T01:02:12;0.10;;;0.10;;
12800;SDS011;6464;42.494;27.470;2024-03-29T01:07:52;0.10;;;0.10;;
12800;SDS011;6464;42.494;27.470;2024-03-29T01:10:21;0.10;;;0.10;;
12800;SDS011;6464;42.494;27.470;2024-03-29T01:12:49;0.10;;;0.10;;
12800;SDS011;6464;42.494;27.470;2024-03-29T01:15:28;0.17;;;0.17;;
12800;SDS011;6464;42.494;27.470;2024-03-29T01:17:56;0.10;;;0.10;;
12800;SDS011;6464;42.494;27.470;2024-03-29T01:20:25;0.20;;;0.20;;
12800;SDS011;6464;42.494;27.470;2024-03-29T01:22:53;0.10;;;0.10;;
12800;SDS011;6464;42.494;27.470;2024-03-29T01:25:19;0.20;;;0.20;;
12800;SDS011;6464;42.494;27.470;2024-03-29T01:27:47;0.20;;;0.20;;
12800;SDS011;6464;42.494;27.470;2024-03-29T01:30:15;0.20;;;0.20;;
12800;SDS011;6464;42.494;27.470;2024-03-29T01:32:43;0.20;;;0.20;;
12800;SDS011;6464;42.494;27.470;2024-03-29T01:35:14;0.20;;;0.20;;
12800;SDS011;6464;42.494;27.470;2024-03-29T01:37:41;0.20;;;0.20;;
12800;SDS011;6464;42.494;27.470;2024-03-29T01:40:24;0.30;;;0.30;;
12800;SDS011;6464;42.494;27.470;2024-03-29T01:42:52;0.30;;;0.30;;
12800;SDS011;6464;42.494;27.470;2024-03-29T01:45:19;0.30;;;0.30;;
12800;SDS011;6464;42.494;27.470;2024-03-29T01:47:47;0.20;;;0.20;;
12800;SDS011;6464;42.494;27.470;2024-03-29T01:50:18;0.10;;;0.10;;
12800;SDS011;6464;42.494;27.470;2024-03-29T01:52:47;0.00;;;0.00;;
12800;SDS011;6464;42.494;27.470;2024-03-29T01:55:32;0.00;;;0.00;;
12800;SDS011;6464;42.494;27.470;2024-03-29T01:58:02;0.00;;;0.00;;
12800;SDS011;6464;42.494;27.470;2024-03-29T04:03:10;0.00;;;0.00;;
12800;SDS011;6464;42.494;27.470;2024-03-29T04:11:25;0.10;;;0.10;;
12800;SDS011;6464;42.494;27.470;2024-03-29T04:30:51;0.30;;;0.30;;
12800;SDS011;6464;42.494;27.470;2024-03-29T04:33:19;0.30;;;0.30;;
12800;SDS011;6464;42.494;27.470;2024-03-29T04:36:01;0.20;;;0.20;;
12800;SDS011;6464;42.494;27.470;2024-03-29T04:38:34;0.20;;;0.20;;
12800;SDS011;6464;42.494;27.470;2024-03-29T04:41:03;0.20;;;0.20;;
12800;SDS011;6464;42.494;27.470;2024-03-29T04:43:34;0.20;;;0.20;;
12800;SDS011;6464;42.494;27.470;2024-03-29T04:48:58;0.20;;;0.20;;
12800;SDS011;6464;42.494;27.470;2024-03-29T04:51:53;0.10;;;0.10;;
12800;SDS011;6464;42.494;27.470;2024-03-29T04:54:22;0.20;;;0.20;;
12800;SDS011;6464;42.494;27.470;2024-03-29T04:56:51;0.20;;;0.20;;
12800;SDS011;6464;42.494;27.470;2024-03-29T04:59:22;0.40;;;0.40;;
12800;SDS011;6464;42.494;27.470;2024-03-29T05:01:50;0.40;;;0.40;;
12800;SDS011;6464;42.494;27.470;2024-03-29T05:15:19;0.50;;;0.50;;
12800;SDS011;6464;42.494;27.470;2024-03-29T05:17:51;0.50;;;0.50;;
12800;SDS011;6464;42.494;27.470;2024-03-29T05:20:24;0.60;;;0.60;;
12800;SDS011;6464;42.494;27.470;2024-03-29T05:22:51;0.60;;;0.60;;
12800;SDS011;6464;42.494;27.470;2024-03-29T05:25:21;0.60;;;0.60;;
12800;SDS011;6464;42.494;27.470;2024-03-29T05:27:50;0.50;;;0.50;;
12800;SDS011;6464;42.494;27.470;2024-03-29T05:30:24;0.50;;;0.50;;
12800;SDS011;6464;42.494;27.470;2024-03-29T05:33:08;0.70;;;0.70;;
12800;SDS011;6464;42.494;27.470;2024-03-29T05:35:35;0.70;;;0.70;;
12800;SDS011;6464;42.494;27.470;2024-03-29T05:38:03;0.70;;;0.70;;
12800;SDS011;6464;42.494;27.470;2024-03-29T05:40:30;0.60;;;0.60;;
12800;SDS011;6464;42.494;27.470;2024-03-29T05:43:00;0.70;;;0.70;;
12800;SDS011;6464;42.494;27.470;2024-03-29T05:45:31;0.90;;;0.90;;
12800;SDS011;6464;42.494;27.470;2024-03-29T05:48:06;0.90;;;0.90;;
12800;SDS011;6464;42.494;27.470;2024-03-29T05:50:33;0.70;;;0.70;;
12800;SDS011;6464;42.494;27.470;2024-03-29T05:53:00;0.60;;;0.60;;
12800;SDS011;6464;42.494;27.470;2024-03-29T05:55:29;0.67;;;0.67;;
12800;SDS011;6464;42.494;27.470;2024-03-29T05:57:56;0.60;;;0.60;;
12800;SDS011;6464;42.494;27.470;2024-03-29T06:00:23;0.60;;;0.60;;
12800;SDS011;6464;42.494;27.470;2024-03-29T06:02:52;0.70;;;0.70;;
12800;SDS011;6464;42.494;27.470;2024-03-29T06:05:20;0.80;;;0.80;;
12800;SDS011;6464;42.494;27.470;2024-03-29T06:07:47;0.93;;;0.93;;
12800;SDS011;6464;42.494;27.470;2024-03-29T06:10:14;1.10;;;1.10;;
12800;SDS011;6464;42.494;27.470;2024-03-29T06:12:42;1.20;;;1.20;;
12800;SDS011;6464;42.494;27.470;2024-03-29T06:15:09;1.40;;;1.40;;
12800;SDS011;6464;42.494;27.470;2024-03-29T06:17:55;1.63;;;1.63;;
12800;SDS011;6464;42.494;27.470;2024-03-29T06:20:23;1.80;;;1.80;;
12800;SDS011;6464;42.494;27.470;2024-03-29T06:22:50;1.90;;;1.90;;
12800;SDS011;6464;42.494;27.470;2024-03-29T06:25:17;2.00;;;2.00;;
12800;SDS011;6464;42.494;27.470;2024-03-29T06:27:46;2.10;;;2.10;;
12800;SDS011;6464;42.494;27.470;2024-03-29T06:30:14;2.10;;;2.10;;
12800;SDS011;6464;42.494;27.470;2024-03-29T06:32:42;2.20;;;2.20;;
12800;SDS011;6464;42.494;27.470;2024-03-29T06:35:12;2.35;;;2.35;;
12800;SDS011;6464;42.494;27.470;2024-03-29T06:37:42;2.70;;;2.70;;
12800;SDS011;6464;42.494;27.470;2024-03-29T06:40:09;2.50;;;2.50;;
12800;SDS011;6464;42.494;27.470;2024-03-29T06:42:37;2.80;;;2.80;;
12800;SDS011;6464;42.494;27.470;2024-03-29T06:45:10;3.10;;;3.10;;
12800;SDS011;6464;42.494;27.470;2024-03-29T06:47:37;3.50;;;3.50;;
12800;SDS011;6464;42.494;27.470;2024-03-29T06:50:05;3.90;;;3.80;;
12800;SDS011;6464;42.494;27.470;2024-03-29T06:52:34;3.90;;;3.80;;
12800;SDS011;6464;42.494;27.470;2024-03-29T06:55:04;4.10;;;4.00;;
12800;SDS011;6464;42.494;27.470;2024-03-29T06:57:32;4.10;;;4.00;;
12800;SDS011;6464;42.494;27.470;2024-03-29T07:00:01;3.90;;;3.80;;
12800;SDS011;6464;42.494;27.470;2024-03-29T07:02:31;4.38;;;4.28;;
12800;SDS011;6464;42.494;27.470;2024-03-29T07:04:58;4.30;;;4.20;;
12800;SDS011;6464;42.494;27.470;2024-03-29T07:07:30;4.35;;;4.25;;
12800;SDS011;6464;42.494;27.470;2024-03-29T07:10:09;4.35;;;4.25;;
12800;SDS011;6464;42.494;27.470;2024-03-29T07:12:37;4.30;;;4.20;;
12800;SDS011;6464;42.494;27.470;2024-03-29T07:15:08;4.80;;;4.70;;
12800;SDS011;6464;42.494;27.470;2024-03-29T07:17:36;4.57;;;4.47;;
12800;SDS011;6464;42.494;27.470;2024-03-29T07:20:17;4.90;;;4.80;;
12800;SDS011;6464;42.494;27.470;2024-03-29T07:22:58;4.85;;;4.75;;
12800;SDS011;6464;42.494;27.470;2024-03-29T08:56:24;8.05;;;7.85;;
12800;SDS011;6464;42.494;27.470;2024-03-29T08:59:04;8.55;;;8.25;;
12800;SDS011;6464;42.494;27.470;2024-03-29T09:01:45;7.85;;;7.65;;
12800;SDS011;6464;42.494;27.470;2024-03-29T09:04:13;9.70;;;9.40;;
12800;SDS011;6464;42.494;27.470;2024-03-29T09:06:41;9.75;;;9.45;;
12800;SDS011;6464;42.494;27.470;2024-03-29T09:09:08;9.30;;;9.00;;
12800;SDS011;6464;42.494;27.470;2024-03-29T09:11:36;8.73;;;8.43;;
12800;SDS011;6464;42.494;27.470;2024-03-29T09:14:17;8.50;;;8.20;;
12800;SDS011;6464;42.494;27.470;2024-03-29T09:16:43;8.10;;;7.90;;
12800;SDS011;6464;42.494;27.470;2024-03-29T09:19:24;8.27;;;8.07;;
12800;SDS011;6464;42.494;27.470;2024-03-29T09:22:04;8.00;;;7.80;;
12800;SDS011;6464;42.494;27.470;2024-03-29T09:24:31;8.00;;;7.80;;
12800;SDS011;6464;42.494;27.470;2024-03-29T09:27:01;8.10;;;7.90;;
12800;SDS011;6464;42.494;27.470;2024-03-29T09:29:27;8.15;;;7.95;;
12800;SDS011;6464;42.494;27.470;2024-03-29T09:31:54;8.00;;;7.80;;
12800;SDS011;6464;42.494;27.470;2024-03-29T09:34:21;8.40;;;8.10;;
12800;SDS011;6464;42.494;27.470;2024-03-29T09:36:48;8.35;;;8.10;;
12800;SDS011;6464;42.494;27.470;2024-03-29T09:39:15;8.40;;;8.10;;
12800;SDS011;6464;42.494;27.470;2024-03-29T09:41:42;8.15;;;7.95;;
12800;SDS011;6464;42.494;27.470;2024-03-29T09:44:11;8.90;;;8.60;;
12800;SDS011;6464;42.494;27.470;2024-03-29T09:46:38;9.05;;;8.75;;
12800;SDS011;6464;42.494;27.470;2024-03-29T09:49:06;9.52;;;9.23;;
12800;SDS011;6464;42.494;27.470;2024-03-29T09:51:33;9.57;;;9.27;;
12800;SDS011;6464;42.494;27.470;2024-03-29T09:54:00;9.35;;;9.05;;
12800;SDS011;6464;42.494;27.470;2024-03-29T09:56:28;9.15;;;8.85;;
12800;SDS011;6464;42.494;27.470;2024-03-29T09:58:55;9.50;;;9.20;;
12800;SDS011;6464;42.494;27.470;2024-03-29T10:01:24;9.13;;;8.82;;
12800;SDS011;6464;42.494;27.470;2024-03-29T10:03:50;9.82;;;9.52;;
12800;SDS011;6464;42.494;27.470;2024-03-29T10:06:19;9.90;;;9.60;;
12800;SDS011;6464;42.494;27.470;2024-03-29T10:08:46;9.32;;;9.02;;
12800;SDS011;6464;42.494;27.470;2024-03-29T10:11:14;9.82;;;9.52;;
12800;SDS011;6464;42.494;27.470;2024-03-29T10:13:43;9.80;;;9.50;;
12800;SDS011;6464;42.494;27.470;2024-03-29T10:16:10;9.63;;;9.32;;
12800;SDS011;6464;42.494;27.470;2024-03-29T10:18:40;9.60;;;9.30;;
12800;SDS011;6464;42.494;27.470;2024-03-29T10:21:08;10.02;;;9.73;;
12800;SDS011;6464;42.494;27.470;2024-03-29T10:23:35;9.48;;;9.18;;
12800;SDS011;6464;42.494;27.470;2024-03-29T10:26:02;9.82;;;9.52;;
12800;SDS011;6464;42.494;27.470;2024-03-29T10:28:30;9.73;;;9.43;;
12800;SDS011;6464;42.494;27.470;2024-03-29T10:30:57;9.65;;;9.35;;
12800;SDS011;6464;42.494;27.470;2024-03-29T10:33:27;9.45;;;9.15;;
12800;SDS011;6464;42.494;27.470;2024-03-29T10:35:55;9.10;;;8.80;;
12800;SDS011;6464;42.494;27.470;2024-03-29T10:38:24;9.77;;;9.48;;
12800;SDS011;6464;42.494;27.470;2024-03-29T10:40:50;10.50;;;10.10;;
12800;SDS011;6464;42.494;27.470;2024-03-29T10:43:18;9.52;;;9.23;;
12800;SDS011;6464;42.494;27.470;2024-03-29T10:45:45;9.50;;;9.20;;
12800;SDS011;6464;42.494;27.470;2024-03-29T10:48:14;9.32;;;9.02;;
12800;SDS011;6464;42.494;27.470;2024-03-29T10:50:41;10.10;;;9.80;;
12800;SDS011;6464;42.494;27.470;2024-03-29T10:53:09;9.43;;;9.13;;
12800;SDS011;6464;42.494;27.470;2024-03-29T10:55:37;9.38;;;9.07;;
12800;SDS011;6464;42.494;27.470;2024-03-29T10:58:04;9.30;;;9.00;;
12800;SDS011;6464;42.494;27.470;2024-03-29T11:00:32;9.38;;;9.07;;
12800;SDS011;6464;42.494;27.470;2024-03-29T11:03:05;9.00;;;8.70;;
12800;SDS011;6464;42.494;27.470;2024-03-29T11:05:35;8.90;;;8.60;;
12800;SDS011;6464;42.494;27.470;2024-03-29T11:08:05;9.35;;;9.05;;
12800;SDS011;6464;42.494;27.470;2024-03-29T11:10:34;9.40;;;9.10;;
12800;SDS011;6464;42.494;27.470;2024-03-29T11:13:02;9.30;;;9.00;;
12800;SDS011;6464;42.494;27.470;2024-03-29T11:15:34;9.88;;;9.57;;
12800;SDS011;6464;42.494;27.470;2024-03-29T11:18:04;9.63;;;9.32;;
12800;SDS011;6464;42.494;27.470;2024-03-29T11:20:31;10.20;;;9.80;;
12800;SDS011;6464;42.494;27.470;2024-03-29T11:23:02;10.10;;;9.77;;
12800;SDS011;6464;42.494;27.470;2024-03-29T11:25:42;10.43;;;10.02;;
12800;SDS011;6464;42.494;27.470;2024-03-29T11:28:11;9.60;;;9.30;;
12800;SDS011;6464;42.494;27.470;2024-03-29T11:30:42;9.77;;;9.48;;
12800;SDS011;6464;42.494;27.470;2024-03-29T11:35:50;9.23;;;8.93;;
12800;SDS011;6464;42.494;27.470;2024-03-29T11:38:17;9.20;;;8.90;;
12800;SDS011;6464;42.494;27.470;2024-03-29T11:40:54;9.20;;;8.90;;
12800;SDS011;6464;42.494;27.470;2024-03-29T11:43:21;9.00;;;8.70;;
12800;SDS011;6464;42.494;27.470;2024-03-29T11:45:48;9.98;;;9.68;;
12800;SDS011;6464;42.494;27.470;2024-03-29T11:48:17;9.50;;;9.20;;
12800;SDS011;6464;42.494;27.470;2024-03-29T11:50:47;9.80;;;9.50;;
12800;SDS011;6464;42.494;27.470;2024-03-29T11:53:13;9.80;;;9.50;;
12800;SDS011;6464;42.494;27.470;2024-03-29T11:55:40;9.90;;;9.60;;
12800;SDS011;6464;42.494;27.470;2024-03-29T11:58:08;10.02;;;9.73;;
12800;SDS011;6464;42.494;27.470;2024-03-29T12:00:35;9.63;;;9.32;;
12800;SDS011;6464;42.494;27.470;2024-03-29T12:03:04;9.85;;;9.55;;
12800;SDS011;6464;42.494;27.470;2024-03-29T12:05:31;9.27;;;8.98;;
12800;SDS011;6464;42.494;27.470;2024-03-29T12:07:57;9.52;;;9.23;;
12800;SDS011;6464;42.494;27.470;2024-03-29T12:10:26;9.10;;;8.80;;
12800;SDS011;6464;42.494;27.470;2024-03-29T12:12:55;9.20;;;8.90;;
12800;SDS011;6464;42.494;27.470;2024-03-29T12:15:24;9.43;;;9.13;;
12800;SDS011;6464;42.494;27.470;2024-03-29T12:17:54;9.30;;;9.00;;
12800;SDS011;6464;42.494;27.470;2024-03-29T12:20:21;9.35;;;9.05;;
12800;SDS011;6464;42.494;27.470;2024-03-29T12:22:48;9.15;;;8.85;;
12800;SDS011;6464;42.494;27.470;2024-03-29T12:25:15;9.75;;;9.45;;
12800;SDS011;6464;42.494;27.470;2024-03-29T12:27:42;9.45;;;9.15;;
12800;SDS011;6464;42.494;27.470;2024-03-29T12:30:09;9.20;;;8.90;;
12800;SDS011;6464;42.494;27.470;2024-03-29T12:32:37;9.40;;;9.10;;
12800;SDS011;6464;42.494;27.470;2024-03-29T12:35:10;8.95;;;8.65;;
12800;SDS011;6464;42.494;27.470;2024-03-29T12:37:37;9.90;;;9.60;;
12800;SDS011;6464;42.494;27.470;2024-03-29T12:40:04;9.48;;;9.18;;
12800;SDS011;6464;42.494;27.470;2024-03-29T12:42:37;9.60;;;9.30;;
12800;SDS011;6464;42.494;27.470;2024-03-29T12:45:04;9.00;;;8.70;;
12800;SDS011;6464;42.494;27.470;2024-03-29T12:47:31;9.30;;;9.00;;
12800;SDS011;6464;42.494;27.470;2024-03-29T12:50:00;9.60;;;9.30;;
12800;SDS011;6464;42.494;27.470;2024-03-29T12:52:26;9.40;;;9.10;;
12800;SDS011;6464;42.494;27.470;2024-03-29T12:54:53;9.77;;;9.48;;
12800;SDS011;6464;42.494;27.470;2024-03-29T12:57:20;9.48;;;9.18;;
12800;SDS011;6464;42.494;27.470;2024-03-29T12:59:47;10.00;;;9.70;;
12800;SDS011;6464;42.494;27.470;2024-03-29T13:02:14;9.80;;;9.50;;
12800;SDS011;6464;42.494;27.470;2024-03-29T13:04:40;9.45;;;9.15;;
12800;SDS011;6464;42.494;27.470;2024-03-29T13:07:11;9.98;;;9.68;;
12800;SDS011;6464;42.494;27.470;2024-03-29T13:09:39;10.10;;;9.80;;
12800;SDS011;6464;42.494;27.470;2024-03-29T13:12:06;10.07;;;9.77;;
12800;SDS011;6464;42.494;27.470;2024-03-29T13:14:33;9.98;;;9.68;;
12800;SDS011;6464;42.494;27.470;2024-03-29T13:17:00;10.10;;;9.80;;
12800;SDS011;6464;42.494;27.470;2024-03-29T13:19:26;9.10;;;8.80;;
12800;SDS011;6464;42.494;27.470;2024-03-29T13:21:53;9.57;;;9.27;;
12800;SDS011;6464;42.494;27.470;2024-03-29T13:24:21;9.98;;;9.68;;
12800;SDS011;6464;42.494;27.470;2024-03-29T13:26:48;9.88;;;9.57;;
12800;SDS011;6464;42.494;27.470;2024-03-29T13:29:15;9.90;;;9.60;;
12800;SDS011;6464;42.494;27.470;2024-03-29T13:31:41;9.70;;;9.40;;
12800;SDS011;6464;42.494;27.470;2024-03-29T13:34:08;9.70;;;9.40;;
12800;SDS011;6464;42.494;27.470;2024-03-29T13:36:38;9.40;;;9.10;;
12800;SDS011;6464;42.494;27.470;2024-03-29T13:39:04;9.40;;;9.10;;
12800;SDS011;6464;42.494;27.470;2024-03-29T13:41:34;9.80;;;9.50;;
12800;SDS011;6464;42.494;27.470;2024-03-29T13:44:01;9.80;;;9.50;;
12800;SDS011;6464;42.494;27.470;2024-03-29T13:46:31;9.65;;;9.35;;
12800;SDS011;6464;42.494;27.470;2024-03-29T13:48:57;9.38;;;9.07;;
12800;SDS011;6464;42.494;27.470;2024-03-29T13:51:24;9.65;;;9.35;;
12800;SDS011;6464;42.494;27.470;2024-03-29T13:53:50;9.88;;;9.57;;
12800;SDS011;6464;42.494;27.470;2024-03-29T13:56:19;9.88;;;9.57;;
12800;SDS011;6464;42.494;27.470;2024-03-29T13:58:47;9.30;;;9.00;;
12800;SDS011;6464;42.494;27.470;2024-03-29T14:01:14;9.60;;;9.30;;
12800;SDS011;6464;42.494;27.470;2024-03-29T14:03:41;9.90;;;9.60;;
12800;SDS011;6464;42.494;27.470;2024-03-29T14:06:08;9.63;;;9.32;;
12800;SDS011;6464;42.494;27.470;2024-03-29T14:08:35;9.90;;;9.60;;
12800;SDS011;6464;42.494;27.470;2024-03-29T14:11:02;9.90;;;9.60;;
12800;SDS011;6464;42.494;27.470;2024-03-29T14:13:28;9.82;;;9.52;;
12800;SDS011;6464;42.494;27.470;2024-03-29T14:15:56;9.90;;;9.60;;
12800;SDS011;6464;42.494;27.470;2024-03-29T14:18:24;10.18;;;9.88;;
12800;SDS011;6464;42.494;27.470;2024-03-29T14:20:51;9.95;;;9.65;;
12800;SDS011;6464;42.494;27.470;2024-03-29T14:23:17;9.73;;;9.43;;
12800;SDS011;6464;42.494;27.470;2024-03-29T14:25:48;9.70;;;9.40;;
12800;SDS011;6464;42.494;27.470;2024-03-29T14:28:14;9.73;;;9.43;;
12800;SDS011;6464;42.494;27.470;2024-03-29T14:30:41;9.68;;;9.38;;
12800;SDS011;6464;42.494;27.470;2024-03-29T14:33:09;9.35;;;9.05;;
12800;SDS011;6464;42.494;27.470;2024-03-29T14:35:36;10.73;;;10.32;;
12800;SDS011;6464;42.494;27.470;2024-03-29T14:38:03;9.82;;;9.52;;
12800;SDS011;6464;42.494;27.470;2024-03-29T14:40:30;9.65;;;9.35;;
12800;SDS011;6464;42.494;27.470;2024-03-29T14:42:56;9.70;;;9.40;;
12800;SDS011;6464;42.494;27.470;2024-03-29T14:45:23;9.20;;;8.90;;
12800;SDS011;6464;42.494;27.470;2024-03-29T14:47:50;9.60;;;9.30;;
12800;SDS011;6464;42.494;27.470;2024-03-29T14:50:18;9.02;;;8.73;;
12800;SDS011;6464;42.494;27.470;2024-03-29T14:52:45;9.05;;;8.75;;
12800;SDS011;6464;42.494;27.470;2024-03-29T14:55:11;8.80;;;8.50;;
12800;SDS011;6464;42.494;27.470;2024-03-29T14:57:38;9.05;;;8.75;;
12800;SDS011;6464;42.494;27.470;2024-03-29T15:00:05;8.98;;;8.68;;
12800;SDS011;6464;42.494;27.470;2024-03-29T15:02:33;9.18;;;8.88;;
12800;SDS011;6464;42.494;27.470;2024-03-29T15:05:00;8.90;;;8.60;;
12800;SDS011;6464;42.494;27.470;2024-03-29T15:07:32;9.70;;;9.40;;
12800;SDS011;6464;42.494;27.470;2024-03-29T15:09:59;9.60;;;9.30;;
12800;SDS011;6464;42.494;27.470;2024-03-29T15:12:28;9.60;;;9.30;;
12800;SDS011;6464;42.494;27.470;2024-03-29T15:14:55;9.63;;;9.32;;
12800;SDS011;6464;42.494;27.470;2024-03-29T15:17:22;9.40;;;9.10;;
12800;SDS011;6464;42.494;27.470;2024-03-29T15:19:48;9.73;;;9.43;;
12800;SDS011;6464;42.494;27.470;2024-03-29T15:22:17;9.52;;;9.23;;
12800;SDS011;6464;42.494;27.470;2024-03-29T15:24:45;9.60;;;9.30;;
12800;SDS011;6464;42.494;27.470;2024-03-29T15:27:12;9.63;;;9.32;;
12800;SDS011;6464;42.494;27.470;2024-03-29T15:29:53;9.85;;;9.55;;
12800;SDS011;6464;42.494;27.470;2024-03-29T15:32:19;9.73;;;9.43;;
12800;SDS011;6464;42.494;27.470;2024-03-29T15:34:45;9.85;;;9.55;;
12800;SDS011;6464;42.494;27.470;2024-03-29T15:37:12;9.63;;;9.32;;
12800;SDS011;6464;42.494;27.470;2024-03-29T15:39:39;9.60;;;9.30;;
12800;SDS011;6464;42.494;27.470;2024-03-29T15:42:07;9.32;;;9.02;;
12800;SDS011;6464;42.494;27.470;2024-03-29T15:44:34;9.07;;;8.77;;
12800;SDS011;6464;42.494;27.470;2024-03-29T15:47:01;9.55;;;9.25;;
12800;SDS011;6464;42.494;27.470;2024-03-29T15:49:28;9.32;;;9.02;;
12800;SDS011;6464;42.494;27.470;2024-03-29T15:51:54;8.95;;;8.65;;
12800;SDS011;6464;42.494;27.470;2024-03-29T15:54:21;9.32;;;9.02;;
12800;SDS011;6464;42.494;27.470;2024-03-29T15:56:48;9.40;;;9.10;;
12800;SDS011;6464;42.494;27.470;2024-03-29T15:59:16;9.60;;;9.30;;
12800;SDS011;6464;42.494;27.470;2024-03-29T16:01:43;9.18;;;8.88;;
12800;SDS011;6464;42.494;27.470;2024-03-29T16:04:09;9.98;;;9.68;;
12800;SDS011;6464;42.494;27.470;2024-03-29T16:06:36;10.63;;;10.23;;
12800;SDS011;6464;42.494;27.470;2024-03-29T16:09:03;10.50;;;10.10;;
12800;SDS011;6464;42.494;27.470;2024-03-29T16:11:34;8.90;;;8.60;;
12800;SDS011;6464;42.494;27.470;2024-03-29T16:14:00;10.45;;;10.05;;
12800;SDS011;6464;42.494;27.470;2024-03-29T16:16:29;9.40;;;9.10;;
12800;SDS011;6464;42.494;27.470;2024-03-29T16:18:55;10.57;;;10.18;;
12800;SDS011;6464;42.494;27.470;2024-03-29T16:21:21;10.23;;;9.82;;
12800;SDS011;6464;42.494;27.470;2024-03-29T16:23:48;9.52;;;9.23;;
12800;SDS011;6464;42.494;27.470;2024-03-29T16:26:14;9.45;;;9.15;;
12800;SDS011;6464;42.494;27.470;2024-03-29T16:28:41;8.50;;;8.20;;
12800;SDS011;6464;42.494;27.470;2024-03-29T16:31:06;8.40;;;8.10;;
12800;SDS011;6464;42.494;27.470;2024-03-29T16:33:34;8.50;;;8.20;;
12800;SDS011;6464;42.494;27.470;2024-03-29T16:36:03;8.50;;;8.20;;
12800;SDS011;6464;42.494;27.470;2024-03-29T16:38:30;8.40;;;8.10;;
12800;SDS011;6464;42.494;27.470;2024-03-29T16:40:56;8.30;;;8.00;;
12800;SDS011;6464;42.494;27.470;2024-03-29T16:43:23;8.40;;;8.10;;
12800;SDS011;6464;42.494;27.470;2024-03-29T16:45:48;8.50;;;8.20;;
12800;SDS011;6464;42.494;27.470;2024-03-29T16:48:15;8.55;;;8.25;;
12800;SDS011;6464;42.494;27.470;2024-03-29T16:50:42;7.85;;;7.65;;
12800;SDS011;6464;42.494;27.470;2024-03-29T16:53:09;8.30;;;8.00;;
12800;SDS011;6464;42.494;27.470;2024-03-29T16:55:34;8.40;;;8.10;;
12800;SDS011;6464;42.494;27.470;2024-03-29T16:58:03;8.10;;;7.90;;
12800;SDS011;6464;42.494;27.470;2024-03-29T17:00:29;8.30;;;8.00;;
12800;SDS011;6464;42.494;27.470;2024-03-29T17:02:56;7.90;;;7.70;;
12800;SDS011;6464;42.494;27.470;2024-03-29T17:05:22;8.00;;;7.80;;
12800;SDS011;6464;42.494;27.470;2024-03-29T17:07:50;7.78;;;7.57;;
12800;SDS011;6464;42.494;27.470;2024-03-29T17:10:16;7.88;;;7.68;;
12800;SDS011;6464;42.494;27.470;2024-03-29T17:12:43;8.00;;;7.80;;
12800;SDS011;6464;42.494;27.470;2024-03-29T17:15:08;7.90;;;7.70;;
12800;SDS011;6464;42.494;27.470;2024-03-29T17:17:35;7.80;;;7.60;;
12800;SDS011;6464;42.494;27.470;2024-03-29T17:20:01;7.70;;;7.50;;
12800;SDS011;6464;42.494;27.470;2024-03-29T17:22:29;7.97;;;7.78;;
12800;SDS011;6464;42.494;27.470;2024-03-29T17:24:56;7.80;;;7.60;;
12800;SDS011;6464;42.494;27.470;2024-03-29T17:27:24;7.63;;;7.43;;
12800;SDS011;6464;42.494;27.470;2024-03-29T17:29:50;7.53;;;7.32;;
12800;SDS011;6464;42.494;27.470;2024-03-29T17:32:16;7.70;;;7.50;;
12800;SDS011;6464;42.494;27.470;2024-03-29T17:34:42;7.70;;;7.50;;
12800;SDS011;6464;42.494;27.470;2024-03-29T17:37:09;7.60;;;7.40;;
12800;SDS011;6464;42.494;27.470;2024-03-29T17:39:35;8.02;;;7.82;;
12800;SDS011;6464;42.494;27.470;2024-03-29T17:42:03;7.93;;;7.72;;
12800;SDS011;6464;42.494;27.470;2024-03-29T17:44:29;7.90;;;7.70;;
12800;SDS011;6464;42.494;27.470;2024-03-29T17:46:59;7.40;;;7.20;;
12800;SDS011;6464;42.494;27.470;2024-03-29T17:49:24;7.68;;;7.47;;
12800;SDS011;6464;42.494;27.470;2024-03-29T17:51:51;7.50;;;7.30;;
12800;SDS011;6464;42.494;27.470;2024-03-29T17:54:17;7.80;;;7.60;;
12800;SDS011;6464;42.494;27.470;2024-03-29T17:56:44;7.95;;;7.75;;
12800;SDS011;6464;42.494;27.470;2024-03-29T17:59:13;7.90;;;7.70;;
12800;SDS011;6464;42.494;27.470;2024-03-29T18:01:40;7.90;;;7.70;;
12800;SDS011;6464;42.494;27.470;2024-03-29T18:04:10;7.80;;;7.60;;
12800;SDS011;6464;42.494;27.470;2024-03-29T18:06:38;7.70;;;7.50;;
12800;SDS011;6464;42.494;27.470;2024-03-29T18:09:07;7.60;;;7.40;;
12800;SDS011;6464;42.494;27.470;2024-03-29T18:11:34;7.70;;;7.50;;
12800;SDS011;6464;42.494;27.470;2024-03-29T18:14:00;7.35;;;7.15;;
12800;SDS011;6464;42.494;27.470;2024-03-29T18:16:29;7.55;;;7.35;;
12800;SDS011;6464;42.494;27.470;2024-03-29T18:19:05;7.60;;;7.40;;
12800;SDS011;6464;42.494;27.470;2024-03-29T18:21:46;7.30;;;7.10;;
12800;SDS011;6464;42.494;27.470;2024-03-29T18:24:21;7.40;;;7.20;;
12800;SDS011;6464;42.494;27.470;2024-03-29T18:26:56;7.40;;;7.20;;
12800;SDS011;6464;42.494;27.470;2024-03-29T18:29:24;7.28;;;7.07;;
12800;SDS011;6464;42.494;27.470;2024-03-29T18:34:48;7.53;;;7.32;;
12800;SDS011;6464;42.494;27.470;2024-03-29T18:37:16;7.38;;;7.18;;
12800;SDS011;6464;42.494;27.470;2024-03-29T18:39:51;7.50;;;7.30;;
12800;SDS011;6464;42.494;27.470;2024-03-29T18:42:17;7.55;;;7.35;;
12800;SDS011;6464;42.494;27.470;2024-03-29T18:44:54;7.50;;;7.30;;
12800;SDS011;6464;42.494;27.470;2024-03-29T18:47:20;7.70;;;7.50;;
12800;SDS011;6464;42.494;27.470;2024-03-29T18:49:59;7.50;;;7.30;;
12800;SDS011;6464;42.494;27.470;2024-03-29T18:52:26;7.47;;;7.28;;
12800;SDS011;6464;42.494;27.470;2024-03-29T18:54:55;7.65;;;7.45;;
12800;SDS011;6464;42.494;27.470;2024-03-29T18:57:24;7.78;;;7.57;;
12800;SDS011;6464;42.494;27.470;2024-03-29T18:59:54;7.30;;;7.10;;
12800;SDS011;6464;42.494;27.470;2024-03-29T19:02:25;7.50;;;7.30;;
12800;SDS011;6464;42.494;27.470;2024-03-29T19:05:24;7.55;;;7.35;;
12800;SDS011;6464;42.494;27.470;2024-03-29T19:08:02;7.07;;;6.88;;
12800;SDS011;6464;42.494;27.470;2024-03-29T19:10:29;7.03;;;6.82;;
12800;SDS011;6464;42.494;27.470;2024-03-29T19:13:01;7.10;;;6.90;;
12800;SDS011;6464;42.494;27.470;2024-03-29T19:15:29;7.10;;;6.90;;
12800;SDS011;6464;42.494;27.470;2024-03-29T19:18:10;7.10;;;6.90;;
12800;SDS011;6464;42.494;27.470;2024-03-29T19:20:40;7.10;;;6.90;;